sensor_id;sensor_type;location;lat;lon;timestamp;temperature;humidity
64833;HTU21D;51290;45.060;38.948;2023-08-21T00:01:22;29.39;25.75
64833;HTU21D;51290;45.060;38.948;2023-08-21T00:03:48;29.32;25.69
64833;HTU21D;51290;45.060;38.948;2023-08-21T00:06:14;29.22;25.83
64833;HTU21D;51290;45.060;38.948;2023-08-21T00:08:40;29.13;26.12
64833;HTU21D;51290;45.060;38.948;2023-08-21T00:11:06;29.06;26.42
64833;HTU21D;51290;45.060;38.948;2023-08-21T00:13:31;29.04;26.52
64833;HTU21D;51290;45.060;38.948;2023-08-21T00:15:57;29.07;26.55
64833;HTU21D;51290;45.060;38.948;2023-08-21T00:18:23;29.13;26.46
64833;HTU21D;51290;45.060;38.948;2023-08-21T00:20:49;29.18;26.32
64833;HTU21D;51290;45.060;38.948;2023-08-21T00:23:15;29.24;26.29
64833;HTU21D;51290;45.060;38.948;2023-08-21T00:25:45;29.29;26.41
64833;HTU21D;51290;45.060;38.948;2023-08-21T00:28:11;29.28;26.46
64833;HTU21D;51290;45.060;38.948;2023-08-21T00:30:38;29.19;26.65
64833;HTU21D;51290;45.060;38.948;2023-08-21T00:33:04;29.08;27.04
64833;HTU21D;51290;45.060;38.948;2023-08-21T00:35:30;28.95;27.51
64833;HTU21D;51290;45.060;38.948;2023-08-21T00:37:56;28.86;27.80
64833;HTU21D;51290;45.060;38.948;2023-08-21T00:40:22;28.75;28.03
64833;HTU21D;51290;45.060;38.948;2023-08-21T00:42:49;28.61;28.52
64833;HTU21D;51290;45.060;38.948;2023-08-21T00:45:15;28.54;28.94
64833;HTU21D;51290;45.060;38.948;2023-08-21T00:47:42;28.42;29.29
64833;HTU21D;51290;45.060;38.948;2023-08-21T00:50:09;28.24;29.83
64833;HTU21D;51290;45.060;38.948;2023-08-21T00:52:39;28.08;30.54
64833;HTU21D;51290;45.060;38.948;2023-08-21T00:55:06;27.97;31.05
64833;HTU21D;51290;45.060;38.948;2023-08-21T00:57:33;27.84;31.36
64833;HTU21D;51290;45.060;38.948;2023-08-21T01:00:00;27.68;31.97
64833;HTU21D;51290;45.060;38.948;2023-08-21T01:02:27;27.51;32.76
64833;HTU21D;51290;45.060;38.948;2023-08-21T01:04:53;27.41;33.38
64833;HTU21D;51290;45.060;38.948;2023-08-21T01:07:19;27.34;33.82
64833;HTU21D;51290;45.060;38.948;2023-08-21T01:17:21;27.35;33.98
64833;HTU21D;51290;45.060;38.948;2023-08-21T01:19:50;27.43;33.39
64833;HTU21D;51290;45.060;38.948;2023-08-21T01:22:16;27.51;32.76
64833;HTU21D;51290;45.060;38.948;2023-08-21T01:24:42;27.58;32.51
64833;HTU21D;51290;45.060;38.948;2023-08-21T01:27:12;27.61;32.54
64833;HTU21D;51290;45.060;38.948;2023-08-21T01:29:41;27.66;32.57
64833;HTU21D;51290;45.060;38.948;2023-08-21T01:32:14;27.65;32.69
64833;HTU21D;51290;45.060;38.948;2023-08-21T01:34:43;27.63;32.97
64833;HTU21D;51290;45.060;38.948;2023-08-21T01:37:11;27.58;33.17
64833;HTU21D;51290;45.060;38.948;2023-08-21T01:39:38;27.52;33.27
64833;HTU21D;51290;45.060;38.948;2023-08-21T01:42:05;27.43;33.56
64833;HTU21D;51290;45.060;38.948;2023-08-21T01:44:31;27.31;33.69
64833;HTU21D;51290;45.060;38.948;2023-08-21T01:46:57;27.17;34.25
64833;HTU21D;51290;45.060;38.948;2023-08-21T01:49:23;27.05;34.43
64833;HTU21D;51290;45.060;38.948;2023-08-21T01:51:49;26.89;34.73
64833;HTU21D;51290;45.060;38.948;2023-08-21T01:54:15;26.80;35.05
64833;HTU21D;51290;45.060;38.948;2023-08-21T01:56:41;26.63;35.14
64833;HTU21D;51290;45.060;38.948;2023-08-21T01:59:07;26.46;35.51
64833;HTU21D;51290;45.060;38.948;2023-08-21T02:01:33;26.31;35.90
64833;HTU21D;51290;45.060;38.948;2023-08-21T02:03:59;26.15;36.49
64833;HTU21D;51290;45.060;38.948;2023-08-21T02:06:25;26.04;37.22
64833;HTU21D;51290;45.060;38.948;2023-08-21T02:08:51;25.89;37.59
64833;HTU21D;51290;45.060;38.948;2023-08-21T02:11:18;25.73;38.03
64833;HTU21D;51290;45.060;38.948;2023-08-21T02:13:43;25.58;38.80
64833;HTU21D;51290;45.060;38.948;2023-08-21T02:16:09;25.47;39.38
64833;HTU21D;51290;45.060;38.948;2023-08-21T02:18:35;25.43;40.15
64833;HTU21D;51290;45.060;38.948;2023-08-21T02:21:01;25.43;41.28
64833;HTU21D;51290;45.060;38.948;2023-08-21T02:23:28;25.37;41.98
64833;HTU21D;51290;45.060;38.948;2023-08-21T02:25:54;25.32;41.83
64833;HTU21D;51290;45.060;38.948;2023-08-21T02:28:20;25.16;42.23
64833;HTU21D;51290;45.060;38.948;2023-08-21T02:30:47;25.02;42.87
64833;HTU21D;51290;45.060;38.948;2023-08-21T02:33:13;24.82;43.28
64833;HTU21D;51290;45.060;38.948;2023-08-21T02:35:39;24.69;44.35
64833;HTU21D;51290;45.060;38.948;2023-08-21T02:38:05;24.63;45.00
64833;HTU21D;51290;45.060;38.948;2023-08-21T02:40:35;24.61;45.16
64833;HTU21D;51290;45.060;38.948;2023-08-21T02:43:01;24.58;45.46
64833;HTU21D;51290;45.060;38.948;2023-08-21T02:45:27;24.49;45.41
64833;HTU21D;51290;45.060;38.948;2023-08-21T02:47:53;24.38;45.64
64833;HTU21D;51290;45.060;38.948;2023-08-21T02:50:19;24.23;45.86
64833;HTU21D;51290;45.060;38.948;2023-08-21T02:52:45;24.11;46.27
64833;HTU21D;51290;45.060;38.948;2023-08-21T02:55:11;24.02;46.38
64833;HTU21D;51290;45.060;38.948;2023-08-21T02:57:37;24.00;46.70
64833;HTU21D;51290;45.060;38.948;2023-08-21T03:00:03;24.02;46.80
64833;HTU21D;51290;45.060;38.948;2023-08-21T03:02:29;24.03;46.66
64833;HTU21D;51290;45.060;38.948;2023-08-21T03:04:55;24.05;46.62
64833;HTU21D;51290;45.060;38.948;2023-08-21T03:07:21;24.06;46.57
64833;HTU21D;51290;45.060;38.948;2023-08-21T03:09:49;24.11;47.02
64833;HTU21D;51290;45.060;38.948;2023-08-21T03:12:16;24.15;46.69
64833;HTU21D;51290;45.060;38.948;2023-08-21T03:14:42;24.21;46.70
64833;HTU21D;51290;45.060;38.948;2023-08-21T03:17:08;24.31;46.60
64833;HTU21D;51290;45.060;38.948;2023-08-21T03:19:34;24.45;46.49
64833;HTU21D;51290;45.060;38.948;2023-08-21T03:22:00;24.54;46.17
64833;HTU21D;51290;45.060;38.948;2023-08-21T03:24:27;24.59;46.11
64833;HTU21D;51290;45.060;38.948;2023-08-21T03:26:52;24.62;46.14
64833;HTU21D;51290;45.060;38.948;2023-08-21T03:29:18;24.72;46.12
64833;HTU21D;51290;45.060;38.948;2023-08-21T03:31:49;24.86;46.21
64833;HTU21D;51290;45.060;38.948;2023-08-21T03:34:15;25.30;45.90
64833;HTU21D;51290;45.060;38.948;2023-08-21T03:36:41;25.93;44.75
64833;HTU21D;51290;45.060;38.948;2023-08-21T03:39:07;26.63;43.47
64833;HTU21D;51290;45.060;38.948;2023-08-21T03:41:38;27.32;42.28
64833;HTU21D;51290;45.060;38.948;2023-08-21T03:44:05;27.96;41.04
64833;HTU21D;51290;45.060;38.948;2023-08-21T03:46:31;28.46;40.07
64833;HTU21D;51290;45.060;38.948;2023-08-21T03:48:57;28.95;39.16
64833;HTU21D;51290;45.060;38.948;2023-08-21T03:51:24;29.36;38.37
64833;HTU21D;51290;45.060;38.948;2023-08-21T03:53:50;29.64;37.64
64833;HTU21D;51290;45.060;38.948;2023-08-21T03:56:16;29.68;37.32
64833;HTU21D;51290;45.060;38.948;2023-08-21T03:58:42;29.48;37.63
64833;HTU21D;51290;45.060;38.948;2023-08-21T04:01:08;29.11;38.26
64833;HTU21D;51290;45.060;38.948;2023-08-21T04:03:34;28.71;38.85
64833;HTU21D;51290;45.060;38.948;2023-08-21T04:06:01;28.38;39.35
64833;HTU21D;51290;45.060;38.948;2023-08-21T04:08:27;28.19;39.84
64833;HTU21D;51290;45.060;38.948;2023-08-21T04:10:53;28.09;40.06
64833;HTU21D;51290;45.060;38.948;2023-08-21T04:13:21;28.02;40.04
64833;HTU21D;51290;45.060;38.948;2023-08-21T04:15:48;27.96;40.19
64833;HTU21D;51290;45.060;38.948;2023-08-21T04:18:15;27.97;40.13
64833;HTU21D;51290;45.060;38.948;2023-08-21T04:20:41;27.93;39.93
64833;HTU21D;51290;45.060;38.948;2023-08-21T04:23:07;27.85;39.85
64833;HTU21D;51290;45.060;38.948;2023-08-21T04:25:33;27.79;39.81
64833;HTU21D;51290;45.060;38.948;2023-08-21T04:27:59;27.72;39.87
64833;HTU21D;51290;45.060;38.948;2023-08-21T04:30:26;27.68;39.89
64833;HTU21D;51290;45.060;38.948;2023-08-21T04:32:52;27.64;39.91
64833;HTU21D;51290;45.060;38.948;2023-08-21T04:35:19;27.61;39.97
64833;HTU21D;51290;45.060;38.948;2023-08-21T04:37:48;27.60;39.98
64833;HTU21D;51290;45.060;38.948;2023-08-21T04:40:17;27.58;39.94
64833;HTU21D;51290;45.060;38.948;2023-08-21T04:42:46;27.57;39.94
64833;HTU21D;51290;45.060;38.948;2023-08-21T04:45:13;27.57;39.96
64833;HTU21D;51290;45.060;38.948;2023-08-21T04:47:39;27.59;39.91
64833;HTU21D;51290;45.060;38.948;2023-08-21T04:50:05;27.57;39.93
64833;HTU21D;51290;45.060;38.948;2023-08-21T04:52:32;27.57;39.95
64833;HTU21D;51290;45.060;38.948;2023-08-21T04:54:59;27.55;40.00
64833;HTU21D;51290;45.060;38.948;2023-08-21T04:57:27;27.57;39.97
64833;HTU21D;51290;45.060;38.948;2023-08-21T04:59:53;27.59;39.97
64833;HTU21D;51290;45.060;38.948;2023-08-21T05:02:21;27.59;39.93
64833;HTU21D;51290;45.060;38.948;2023-08-21T05:04:50;27.58;39.93
64833;HTU21D;51290;45.060;38.948;2023-08-21T05:07:16;27.58;40.00
64833;HTU21D;51290;45.060;38.948;2023-08-21T05:09:42;27.59;40.06
64833;HTU21D;51290;45.060;38.948;2023-08-21T05:12:10;27.64;40.13
64833;HTU21D;51290;45.060;38.948;2023-08-21T05:14:36;27.71;40.24
64833;HTU21D;51290;45.060;38.948;2023-08-21T05:17:03;27.81;40.26
64833;HTU21D;51290;45.060;38.948;2023-08-21T05:19:29;27.90;40.16
64833;HTU21D;51290;45.060;38.948;2023-08-21T05:21:56;27.99;40.06
64833;HTU21D;51290;45.060;38.948;2023-08-21T05:24:22;28.12;39.91
64833;HTU21D;51290;45.060;38.948;2023-08-21T05:26:56;28.25;39.50
64833;HTU21D;51290;45.060;38.948;2023-08-21T05:29:22;28.34;39.30
64833;HTU21D;51290;45.060;38.948;2023-08-21T05:31:49;28.48;39.02
64833;HTU21D;51290;45.060;38.948;2023-08-21T05:34:15;28.60;38.59
64833;HTU21D;51290;45.060;38.948;2023-08-21T05:36:41;28.65;38.08
64833;HTU21D;51290;45.060;38.948;2023-08-21T05:39:08;28.74;37.85
64833;HTU21D;51290;45.060;38.948;2023-08-21T05:41:35;28.82;37.56
64833;HTU21D;51290;45.060;38.948;2023-08-21T05:44:01;28.93;37.40
64833;HTU21D;51290;45.060;38.948;2023-08-21T05:46:27;29.06;37.17
64833;HTU21D;51290;45.060;38.948;2023-08-21T05:48:53;29.24;36.81
64833;HTU21D;51290;45.060;38.948;2023-08-21T05:51:19;29.39;36.43
64833;HTU21D;51290;45.060;38.948;2023-08-21T05:53:45;29.58;35.89
64833;HTU21D;51290;45.060;38.948;2023-08-21T05:56:11;29.66;35.37
64833;HTU21D;51290;45.060;38.948;2023-08-21T05:58:37;29.75;35.05
64833;HTU21D;51290;45.060;38.948;2023-08-21T06:01:03;29.88;34.73
64833;HTU21D;51290;45.060;38.948;2023-08-21T06:03:32;29.95;34.30
64833;HTU21D;51290;45.060;38.948;2023-08-21T06:06:10;29.93;34.12
64833;HTU21D;51290;45.060;38.948;2023-08-21T06:08:36;29.93;34.02
64833;HTU21D;51290;45.060;38.948;2023-08-21T06:11:02;29.96;33.85
64833;HTU21D;51290;45.060;38.948;2023-08-21T06:13:28;30.02;33.76
64833;HTU21D;51290;45.060;38.948;2023-08-21T06:15:55;30.09;33.61
64833;HTU21D;51290;45.060;38.948;2023-08-21T06:18:23;30.15;33.44
64833;HTU21D;51290;45.060;38.948;2023-08-21T06:20:49;30.23;33.42
64833;HTU21D;51290;45.060;38.948;2023-08-21T06:23:21;30.36;33.21
64833;HTU21D;51290;45.060;38.948;2023-08-21T06:25:48;30.39;32.68
64833;HTU21D;51290;45.060;38.948;2023-08-21T06:28:15;30.39;32.51
64833;HTU21D;51290;45.060;38.948;2023-08-21T06:30:42;30.41;32.45
64833;HTU21D;51290;45.060;38.948;2023-08-21T06:33:08;30.50;32.16
64833;HTU21D;51290;45.060;38.948;2023-08-21T06:35:37;30.56;31.77
64833;HTU21D;51290;45.060;38.948;2023-08-21T06:38:04;30.60;31.78
64833;HTU21D;51290;45.060;38.948;2023-08-21T06:40:31;30.68;31.71
64833;HTU21D;51290;45.060;38.948;2023-08-21T06:42:57;30.78;31.34
64833;HTU21D;51290;45.060;38.948;2023-08-21T06:45:28;30.84;31.30
64833;HTU21D;51290;45.060;38.948;2023-08-21T06:47:57;30.89;31.02
64833;HTU21D;51290;45.060;38.948;2023-08-21T06:50:23;30.92;30.96
64833;HTU21D;51290;45.060;38.948;2023-08-21T06:52:49;30.96;30.86
64833;HTU21D;51290;45.060;38.948;2023-08-21T06:55:15;31.01;30.75
64833;HTU21D;51290;45.060;38.948;2023-08-21T06:57:41;31.06;30.74
64833;HTU21D;51290;45.060;38.948;2023-08-21T07:00:08;31.11;30.72
64833;HTU21D;51290;45.060;38.948;2023-08-21T07:02:35;31.21;30.74
64833;HTU21D;51290;45.060;38.948;2023-08-21T07:05:01;31.31;30.72
64833;HTU21D;51290;45.060;38.948;2023-08-21T07:07:28;31.44;30.64
64833;HTU21D;51290;45.060;38.948;2023-08-21T07:09:54;31.53;30.51
64833;HTU21D;51290;45.060;38.948;2023-08-21T07:12:22;31.64;30.22
64833;HTU21D;51290;45.060;38.948;2023-08-21T07:14:48;31.70;29.96
64833;HTU21D;51290;45.060;38.948;2023-08-21T07:17:14;31.69;29.71
64833;HTU21D;51290;45.060;38.948;2023-08-21T07:19:41;31.63;29.60
64833;HTU21D;51290;45.060;38.948;2023-08-21T07:22:07;31.63;29.55
64833;HTU21D;51290;45.060;38.948;2023-08-21T07:24:33;31.63;29.48
64833;HTU21D;51290;45.060;38.948;2023-08-21T07:26:59;31.70;29.44
64833;HTU21D;51290;45.060;38.948;2023-08-21T07:29:25;31.75;29.39
64833;HTU21D;51290;45.060;38.948;2023-08-21T07:31:51;31.85;29.26
64833;HTU21D;51290;45.060;38.948;2023-08-21T07:34:17;31.88;29.16
64833;HTU21D;51290;45.060;38.948;2023-08-21T07:36:43;31.88;29.11
64833;HTU21D;51290;45.060;38.948;2023-08-21T07:39:08;31.94;29.03
64833;HTU21D;51290;45.060;38.948;2023-08-21T07:41:34;32.01;29.01
64833;HTU21D;51290;45.060;38.948;2023-08-21T07:44:01;32.09;28.86
64833;HTU21D;51290;45.060;38.948;2023-08-21T07:46:28;32.14;28.61
64833;HTU21D;51290;45.060;38.948;2023-08-21T07:48:54;32.16;28.54
64833;HTU21D;51290;45.060;38.948;2023-08-21T07:51:20;32.18;28.41
64833;HTU21D;51290;45.060;38.948;2023-08-21T07:53:48;32.18;28.35
64833;HTU21D;51290;45.060;38.948;2023-08-21T07:56:14;32.19;28.36
64833;HTU21D;51290;45.060;38.948;2023-08-21T07:58:40;32.25;28.32
64833;HTU21D;51290;45.060;38.948;2023-08-21T08:01:06;32.29;28.15
64833;HTU21D;51290;45.060;38.948;2023-08-21T08:03:32;32.35;28.19
64833;HTU21D;51290;45.060;38.948;2023-08-21T08:05:59;32.43;27.93
64833;HTU21D;51290;45.060;38.948;2023-08-21T08:08:24;32.49;27.74
64833;HTU21D;51290;45.060;38.948;2023-08-21T08:10:53;32.57;27.41
64833;HTU21D;51290;45.060;38.948;2023-08-21T08:13:19;32.58;27.39
64833;HTU21D;51290;45.060;38.948;2023-08-21T08:15:45;32.60;27.31
64833;HTU21D;51290;45.060;38.948;2023-08-21T08:18:12;32.64;27.42
64833;HTU21D;51290;45.060;38.948;2023-08-21T08:20:39;32.72;27.39
64833;HTU21D;51290;45.060;38.948;2023-08-21T08:23:05;32.77;27.38
64833;HTU21D;51290;45.060;38.948;2023-08-21T08:25:31;32.82;27.46
64833;HTU21D;51290;45.060;38.948;2023-08-21T08:27:56;32.88;27.42
64833;HTU21D;51290;45.060;38.948;2023-08-21T08:30:22;32.90;27.32
64833;HTU21D;51290;45.060;38.948;2023-08-21T08:32:49;32.97;27.38
64833;HTU21D;51290;45.060;38.948;2023-08-21T08:35:15;33.02;27.44
64833;HTU21D;51290;45.060;38.948;2023-08-21T08:37:42;33.09;27.29
64833;HTU21D;51290;45.060;38.948;2023-08-21T08:40:09;33.12;27.26
64833;HTU21D;51290;45.060;38.948;2023-08-21T08:42:35;33.14;27.33
64833;HTU21D;51290;45.060;38.948;2023-08-21T08:45:03;33.17;27.38
64833;HTU21D;51290;45.060;38.948;2023-08-21T08:47:32;33.21;27.30
64833;HTU21D;51290;45.060;38.948;2023-08-21T08:50:02;33.26;27.02
64833;HTU21D;51290;45.060;38.948;2023-08-21T08:52:31;33.31;26.80
64833;HTU21D;51290;45.060;38.948;2023-08-21T08:54:59;33.32;26.78
64833;HTU21D;51290;45.060;38.948;2023-08-21T08:57:26;33.33;26.81
64833;HTU21D;51290;45.060;38.948;2023-08-21T08:59:52;33.32;26.90
64833;HTU21D;51290;45.060;38.948;2023-08-21T09:02:18;33.36;26.94
64833;HTU21D;51290;45.060;38.948;2023-08-21T09:04:44;33.43;26.94
64833;HTU21D;51290;45.060;38.948;2023-08-21T09:07:11;33.48;26.88
64833;HTU21D;51290;45.060;38.948;2023-08-21T09:09:45;33.53;26.81
64833;HTU21D;51290;45.060;38.948;2023-08-21T09:12:12;33.53;26.62
64833;HTU21D;51290;45.060;38.948;2023-08-21T09:14:40;33.53;26.51
64833;HTU21D;51290;45.060;38.948;2023-08-21T09:17:07;33.53;26.42
64833;HTU21D;51290;45.060;38.948;2023-08-21T09:19:33;33.51;26.30
64833;HTU21D;51290;45.060;38.948;2023-08-21T09:22:08;33.50;26.32
64833;HTU21D;51290;45.060;38.948;2023-08-21T09:24:35;33.51;26.44
64833;HTU21D;51290;45.060;38.948;2023-08-21T09:27:01;33.56;26.44
64833;HTU21D;51290;45.060;38.948;2023-08-21T09:29:38;33.70;26.10
64833;HTU21D;51290;45.060;38.948;2023-08-21T09:32:05;33.85;25.58
64833;HTU21D;51290;45.060;38.948;2023-08-21T09:34:37;33.93;25.33
64833;HTU21D;51290;45.060;38.948;2023-08-21T09:37:07;34.05;25.23
64833;HTU21D;51290;45.060;38.948;2023-08-21T09:39:37;34.17;25.03
64833;HTU21D;51290;45.060;38.948;2023-08-21T09:42:07;34.25;24.63
64833;HTU21D;51290;45.060;38.948;2023-08-21T09:44:40;34.33;24.49
64833;HTU21D;51290;45.060;38.948;2023-08-21T09:47:11;34.41;24.29
64833;HTU21D;51290;45.060;38.948;2023-08-21T09:49:38;34.49;23.98
64833;HTU21D;51290;45.060;38.948;2023-08-21T09:52:08;34.61;23.86
64833;HTU21D;51290;45.060;38.948;2023-08-21T09:54:38;34.76;23.40
64833;HTU21D;51290;45.060;38.948;2023-08-21T09:57:05;34.79;22.83
64833;HTU21D;51290;45.060;38.948;2023-08-21T09:59:32;34.77;22.46
64833;HTU21D;51290;45.060;38.948;2023-08-21T10:01:59;34.75;22.07
64833;HTU21D;51290;45.060;38.948;2023-08-21T10:04:28;34.75;21.40
64833;HTU21D;51290;45.060;38.948;2023-08-21T10:06:56;34.75;21.29
64833;HTU21D;51290;45.060;38.948;2023-08-21T10:09:23;34.77;21.39
64833;HTU21D;51290;45.060;38.948;2023-08-21T10:11:52;34.76;21.27
64833;HTU21D;51290;45.060;38.948;2023-08-21T10:14:20;34.83;21.38
64833;HTU21D;51290;45.060;38.948;2023-08-21T10:16:47;34.82;21.32
64833;HTU21D;51290;45.060;38.948;2023-08-21T10:19:14;34.82;21.18
64833;HTU21D;51290;45.060;38.948;2023-08-21T10:21:40;34.84;21.06
64833;HTU21D;51290;45.060;38.948;2023-08-21T10:24:06;34.90;20.66
64833;HTU21D;51290;45.060;38.948;2023-08-21T10:26:38;34.91;20.70
64833;HTU21D;51290;45.060;38.948;2023-08-21T10:29:05;34.90;20.73
64833;HTU21D;51290;45.060;38.948;2023-08-21T10:31:35;34.93;20.65
64833;HTU21D;51290;45.060;38.948;2023-08-21T10:34:06;35.01;20.69
64833;HTU21D;51290;45.060;38.948;2023-08-21T10:39:18;35.25;20.31
64833;HTU21D;51290;45.060;38.948;2023-08-21T10:42:09;35.29;20.37
64833;HTU21D;51290;45.060;38.948;2023-08-21T10:50:03;35.51;20.02
64833;HTU21D;51290;45.060;38.948;2023-08-21T10:52:30;35.69;19.94
64833;HTU21D;51290;45.060;38.948;2023-08-21T10:54:58;35.77;19.54
64833;HTU21D;51290;45.060;38.948;2023-08-21T10:57:27;35.74;19.41
64833;HTU21D;51290;45.060;38.948;2023-08-21T10:59:56;35.69;19.38
64833;HTU21D;51290;45.060;38.948;2023-08-21T11:02:23;35.66;19.35
64833;HTU21D;51290;45.060;38.948;2023-08-21T11:04:50;35.66;19.39
64833;HTU21D;51290;45.060;38.948;2023-08-21T11:07:17;35.64;19.12
64833;HTU21D;51290;45.060;38.948;2023-08-21T11:09:43;35.59;19.09
64833;HTU21D;51290;45.060;38.948;2023-08-21T11:12:12;35.48;19.25
64833;HTU21D;51290;45.060;38.948;2023-08-21T11:14:39;35.38;19.38
64833;HTU21D;51290;45.060;38.948;2023-08-21T11:17:05;35.29;19.32
64833;HTU21D;51290;45.060;38.948;2023-08-21T11:19:35;35.22;19.25
64833;HTU21D;51290;45.060;38.948;2023-08-21T11:22:02;35.14;19.48
64833;HTU21D;51290;45.060;38.948;2023-08-21T11:27:04;34.99;19.71
64833;HTU21D;51290;45.060;38.948;2023-08-21T11:29:46;34.93;19.85
64833;HTU21D;51290;45.060;38.948;2023-08-21T11:32:17;34.89;19.96
64833;HTU21D;51290;45.060;38.948;2023-08-21T11:35:09;34.84;20.11
64833;HTU21D;51290;45.060;38.948;2023-08-21T11:37:43;34.84;20.05
64833;HTU21D;51290;45.060;38.948;2023-08-21T11:40:13;34.88;20.05
64833;HTU21D;51290;45.060;38.948;2023-08-21T11:42:40;34.89;19.95
64833;HTU21D;51290;45.060;38.948;2023-08-21T11:45:06;34.88;20.01
64833;HTU21D;51290;45.060;38.948;2023-08-21T11:47:34;34.85;19.91
64833;HTU21D;51290;45.060;38.948;2023-08-21T11:50:05;34.84;19.76
64833;HTU21D;51290;45.060;38.948;2023-08-21T11:52:32;34.82;19.47
64833;HTU21D;51290;45.060;38.948;2023-08-21T11:54:58;34.84;19.52
64833;HTU21D;51290;45.060;38.948;2023-08-21T11:57:25;34.86;19.55
64833;HTU21D;51290;45.060;38.948;2023-08-21T11:59:52;34.88;19.54
64833;HTU21D;51290;45.060;38.948;2023-08-21T12:02:28;34.86;19.62
64833;HTU21D;51290;45.060;38.948;2023-08-21T12:05:05;34.84;19.50
64833;HTU21D;51290;45.060;38.948;2023-08-21T12:07:32;34.88;19.23
64833;HTU21D;51290;45.060;38.948;2023-08-21T12:09:59;34.93;19.15
64833;HTU21D;51290;45.060;38.948;2023-08-21T12:12:25;34.97;19.16
64833;HTU21D;51290;45.060;38.948;2023-08-21T12:14:51;35.04;19.13
64833;HTU21D;51290;45.060;38.948;2023-08-21T12:17:17;35.11;19.08
64833;HTU21D;51290;45.060;38.948;2023-08-21T12:19:43;35.12;19.09
64833;HTU21D;51290;45.060;38.948;2023-08-21T12:22:09;35.14;19.02
64833;HTU21D;51290;45.060;38.948;2023-08-21T12:24:35;35.14;19.00
64833;HTU21D;51290;45.060;38.948;2023-08-21T12:27:03;35.13;18.89
64833;HTU21D;51290;45.060;38.948;2023-08-21T12:29:29;35.11;18.80
64833;HTU21D;51290;45.060;38.948;2023-08-21T12:31:55;35.07;18.76
64833;HTU21D;51290;45.060;38.948;2023-08-21T12:34:21;35.05;18.73
64833;HTU21D;51290;45.060;38.948;2023-08-21T12:36:50;35.03;18.77
64833;HTU21D;51290;45.060;38.948;2023-08-21T12:39:16;35.01;18.83
64833;HTU21D;51290;45.060;38.948;2023-08-21T12:41:43;35.04;18.67
64833;HTU21D;51290;45.060;38.948;2023-08-21T12:44:09;35.07;18.50
64833;HTU21D;51290;45.060;38.948;2023-08-21T12:46:36;35.10;18.59
64833;HTU21D;51290;45.060;38.948;2023-08-21T12:49:02;35.14;18.66
64833;HTU21D;51290;45.060;38.948;2023-08-21T12:51:28;35.18;18.68
64833;HTU21D;51290;45.060;38.948;2023-08-21T12:53:55;35.19;18.64
64833;HTU21D;51290;45.060;38.948;2023-08-21T12:56:21;35.21;18.48
64833;HTU21D;51290;45.060;38.948;2023-08-21T12:58:51;35.25;18.52
64833;HTU21D;51290;45.060;38.948;2023-08-21T13:01:17;35.27;18.48
64833;HTU21D;51290;45.060;38.948;2023-08-21T13:03:46;35.24;18.53
64833;HTU21D;51290;45.060;38.948;2023-08-21T13:06:13;35.20;18.77
64833;HTU21D;51290;45.060;38.948;2023-08-21T13:08:40;35.20;18.74
64833;HTU21D;51290;45.060;38.948;2023-08-21T13:11:06;35.19;18.66
64833;HTU21D;51290;45.060;38.948;2023-08-21T13:13:33;35.16;18.70
64833;HTU21D;51290;45.060;38.948;2023-08-21T13:15:59;35.11;18.75
64833;HTU21D;51290;45.060;38.948;2023-08-21T13:18:26;35.14;18.60
64833;HTU21D;51290;45.060;38.948;2023-08-21T13:20:52;35.23;18.28
64833;HTU21D;51290;45.060;38.948;2023-08-21T13:23:18;35.38;18.15
64833;HTU21D;51290;45.060;38.948;2023-08-21T13:25:44;35.51;17.79
64833;HTU21D;51290;45.060;38.948;2023-08-21T13:28:10;35.64;17.71
64833;HTU21D;51290;45.060;38.948;2023-08-21T13:30:37;35.87;17.71
64833;HTU21D;51290;45.060;38.948;2023-08-21T13:33:04;36.09;17.45
64833;HTU21D;51290;45.060;38.948;2023-08-21T13:35:30;36.28;17.40
64833;HTU21D;51290;45.060;38.948;2023-08-21T13:37:56;36.43;17.01
64833;HTU21D;51290;45.060;38.948;2023-08-21T13:40:24;36.66;16.94
64833;HTU21D;51290;45.060;38.948;2023-08-21T13:42:50;36.74;16.77
64833;HTU21D;51290;45.060;38.948;2023-08-21T13:45:18;36.75;16.77
64833;HTU21D;51290;45.060;38.948;2023-08-21T13:47:47;36.83;16.66
64833;HTU21D;51290;45.060;38.948;2023-08-21T13:50:15;37.02;16.61
64833;HTU21D;51290;45.060;38.948;2023-08-21T13:52:41;37.28;16.32
64833;HTU21D;51290;45.060;38.948;2023-08-21T13:55:10;37.52;16.05
64833;HTU21D;51290;45.060;38.948;2023-08-21T13:57:37;37.77;15.83
64833;HTU21D;51290;45.060;38.948;2023-08-21T14:00:04;37.94;15.70
64833;HTU21D;51290;45.060;38.948;2023-08-21T14:02:34;38.07;15.61
64833;HTU21D;51290;45.060;38.948;2023-08-21T14:05:01;38.18;15.56
64833;HTU21D;51290;45.060;38.948;2023-08-21T14:07:27;38.26;15.58
64833;HTU21D;51290;45.060;38.948;2023-08-21T14:09:53;38.31;15.41
64833;HTU21D;51290;45.060;38.948;2023-08-21T14:12:28;38.26;15.25
64833;HTU21D;51290;45.060;38.948;2023-08-21T14:14:54;38.25;15.26
64833;HTU21D;51290;45.060;38.948;2023-08-21T14:17:20;38.21;15.26
64833;HTU21D;51290;45.060;38.948;2023-08-21T14:19:46;38.23;15.32
64833;HTU21D;51290;45.060;38.948;2023-08-21T14:22:12;38.29;15.32
64833;HTU21D;51290;45.060;38.948;2023-08-21T14:24:38;38.29;15.31
64833;HTU21D;51290;45.060;38.948;2023-08-21T14:27:04;38.29;15.32
64833;HTU21D;51290;45.060;38.948;2023-08-21T14:29:30;38.22;15.33
64833;HTU21D;51290;45.060;38.948;2023-08-21T14:31:58;38.16;15.22
64833;HTU21D;51290;45.060;38.948;2023-08-21T14:34:28;38.12;15.27
64833;HTU21D;51290;45.060;38.948;2023-08-21T14:36:54;38.04;15.50
64833;HTU21D;51290;45.060;38.948;2023-08-21T14:39:22;37.92;15.73
64833;HTU21D;51290;45.060;38.948;2023-08-21T14:41:54;37.77;15.99
64833;HTU21D;51290;45.060;38.948;2023-08-21T14:44:20;37.62;16.02
64833;HTU21D;51290;45.060;38.948;2023-08-21T14:46:46;37.57;16.16
64833;HTU21D;51290;45.060;38.948;2023-08-21T14:49:15;37.46;16.31
64833;HTU21D;51290;45.060;38.948;2023-08-21T14:51:43;37.34;16.49
64833;HTU21D;51290;45.060;38.948;2023-08-21T14:54:10;37.29;16.90
64833;HTU21D;51290;45.060;38.948;2023-08-21T14:56:36;37.05;17.05
64833;HTU21D;51290;45.060;38.948;2023-08-21T14:59:02;36.66;17.23
64833;HTU21D;51290;45.060;38.948;2023-08-21T15:01:30;36.18;17.32
64833;HTU21D;51290;45.060;38.948;2023-08-21T15:03:56;35.78;17.51
64833;HTU21D;51290;45.060;38.948;2023-08-21T15:06:22;35.42;17.85
64833;HTU21D;51290;45.060;38.948;2023-08-21T15:08:47;35.12;17.96
64833;HTU21D;51290;45.060;38.948;2023-08-21T15:11:13;34.85;18.18
64833;HTU21D;51290;45.060;38.948;2023-08-21T15:13:40;34.60;18.42
64833;HTU21D;51290;45.060;38.948;2023-08-21T15:16:06;34.38;18.66
64833;HTU21D;51290;45.060;38.948;2023-08-21T15:18:32;34.19;19.08
64833;HTU21D;51290;45.060;38.948;2023-08-21T15:20:58;34.03;19.29